Time;durP1;ratioP1;P1;durP2;ratioP2;P2;SDS_P1;SDS_P2;PMS_P1;PMS_P2;Temp;Humidity;BMP_temperature;BMP_pressure;BME280_temperature;BME280_humidity;BME280_pressure;Samples;Min_cycle;Max_cycle;Signal;HPM_P1;HPM_P2
2022/04/23 00:00:54;;;;;;;2.70;1.70;;;22.90;41.00;;;;;;5000722;28;20030;-41
2022/04/23 00:03:19;;;;;;;2.78;1.67;;;22.90;41.00;;;;;;5001876;28;20085;-40
2022/04/23 00:05:45;;;;;;;3.08;1.88;;;23.00;41.00;;;;;;4995902;28;20026;-41
2022/04/23 00:08:11;;;;;;;2.92;1.75;;;22.90;40.90;;;;;;5001376;28;20117;-41
2022/04/23 00:10:37;;;;;;;2.90;1.58;;;22.90;40.90;;;;;;5000978;28;20164;-41
2022/04/23 00:13:04;;;;;;;2.80;1.65;;;22.90;40.90;;;;;;5001531;28;20515;-41
2022/04/23 00:15:37;;;;;;;2.50;1.40;;;22.90;41.00;;;;;;4983569;28;20194;-41
2022/04/23 00:18:06;;;;;;;;;;;22.90;41.00;;;;;;5001927;28;20022;-41
2022/04/23 00:20:33;;;;;;;1.90;1.23;;;22.90;41.00;;;;;;5000726;28;20020;-42
2022/04/23 00:22:59;;;;;;;3.05;1.75;;;22.90;41.00;;;;;;5001098;28;20368;-42
2022/04/23 00:25:26;;;;;;;2.70;1.50;;;22.90;41.00;;;;;;5000547;28;20200;-41
2022/04/23 00:27:52;;;;;;;2.88;1.70;;;22.80;40.90;;;;;;5001302;28;20030;-42
2022/04/23 00:30:18;;;;;;;2.50;1.45;;;22.80;40.90;;;;;;5000896;28;20049;-42
2022/04/23 00:32:43;;;;;;;2.55;1.33;;;22.80;40.80;;;;;;5000998;28;20057;-41
2022/04/23 00:35:13;;;;;;;2.83;1.60;;;22.80;40.80;;;;;;5000905;28;20099;-41
2022/04/23 00:37:39;;;;;;;2.70;1.50;;;22.80;40.80;;;;;;5001006;28;20033;-41
2022/04/23 00:40:07;;;;;;;2.60;1.55;;;22.80;40.80;;;;;;5000055;28;20228;-42
2022/04/23 00:42:44;;;;;;;2.05;1.35;;;22.80;41.60;;;;;;5000283;28;20080;-41
2022/04/23 00:45:10;;;;;;;3.45;1.70;;;22.80;40.80;;;;;;5001246;28;20108;-41
2022/04/23 00:47:36;;;;;;;2.65;1.60;;;22.80;40.80;;;;;;5000356;28;20105;-41
2022/04/23 00:50:03;;;;;;;2.72;1.50;;;22.80;40.80;;;;;;5000862;28;20549;-41
2022/04/23 00:52:29;;;;;;;3.33;1.90;;;22.80;40.80;;;;;;5000095;28;20442;-41
2022/04/23 00:54:55;;;;;;;2.80;1.60;;;22.80;40.90;;;;;;5000429;28;20178;-41
2022/04/23 00:57:21;;;;;;;3.25;1.90;;;22.80;40.90;;;;;;5000620;28;20490;-41
2022/04/23 00:59:49;;;;;;;2.78;1.63;;;22.80;40.80;;;;;;5000165;28;20026;-41
2022/04/23 01:02:15;;;;;;;3.90;1.80;;;22.80;40.80;;;;;;5000461;28;20026;-42
2022/04/23 01:04:41;;;;;;;2.83;1.55;;;22.70;40.90;;;;;;5000488;28;20029;-42
2022/04/23 01:07:08;;;;;;;3.58;1.73;;;22.70;40.80;;;;;;4988817;28;20088;-41
2022/04/23 01:09:34;;;;;;;2.97;1.70;;;22.70;40.80;;;;;;4991006;28;20061;-41
2022/04/23 01:12:02;;;;;;;3.00;1.60;;;22.70;40.90;;;;;;4999977;28;20029;-42
2022/04/23 01:14:28;;;;;;;2.78;1.67;;;22.70;40.80;;;;;;4982698;28;20457;-41
2022/04/23 01:16:54;;;;;;;2.50;1.55;;;22.70;40.80;;;;;;5000093;28;20262;-41
2022/04/23 01:19:19;;;;;;;2.75;1.40;;;22.70;40.80;;;;;;5000281;28;20030;-41
2022/04/23 01:21:45;;;;;;;3.25;1.83;;;22.70;40.80;;;;;;4999235;28;20113;-41
2022/04/23 01:24:12;;;;;;;2.60;1.42;;;22.70;40.80;;;;;;4999756;28;20115;-42
2022/04/23 01:26:38;;;;;;;2.58;1.73;;;22.70;40.80;;;;;;4999967;28;20486;-42
2022/04/23 01:29:04;;;;;;;3.13;1.90;;;22.70;41.50;;;;;;5000821;28;20080;-41
2022/04/23 01:31:29;;;;;;;2.53;1.50;;;22.70;40.80;;;;;;4999126;28;20633;-42
2022/04/23 01:33:55;;;;;;;2.50;1.58;;;22.70;40.80;;;;;;4999262;28;20030;-42
2022/04/23 01:36:21;;;;;;;2.63;1.55;;;22.70;40.80;;;;;;4999546;28;20081;-41
2022/04/23 01:38:47;;;;;;;3.38;2.10;;;22.80;40.80;;;;;;4999499;28;20104;-42
2022/04/23 01:41:12;;;;;;;3.15;1.80;;;22.70;40.80;;;;;;4999277;28;20061;-42
2022/04/23 01:43:38;;;;;;;3.00;1.70;;;22.70;40.80;;;;;;4999489;28;20026;-42
2022/04/23 01:46:04;;;;;;;2.58;1.60;;;22.70;40.80;;;;;;4999377;28;20525;-41
2022/04/23 01:48:30;;;;;;;2.78;1.75;;;22.70;40.80;;;;;;4999180;28;20116;-41
2022/04/23 01:50:56;;;;;;;2.83;1.38;;;22.70;40.70;;;;;;4998728;28;20798;-41
2022/04/23 01:53:24;;;;;;;3.10;1.90;;;22.70;40.70;;;;;;4998962;28;20034;-41
2022/04/23 01:55:53;;;;;;;2.35;1.58;;;22.70;40.70;;;;;;4998753;28;20406;-42
2022/04/23 01:58:21;;;;;;;3.13;1.70;;;22.70;40.70;;;;;;4999540;28;20085;-42
2022/04/23 02:00:48;;;;;;;2.20;1.40;;;22.70;40.80;;;;;;4999101;28;20079;-41
2022/04/23 02:03:13;;;;;;;2.97;1.67;;;22.70;41.50;;;;;;4999191;28;20220;-42
2022/04/23 02:05:39;;;;;;;3.08;1.88;;;22.70;40.80;;;;;;4999417;28;20668;-41
2022/04/23 02:08:05;;;;;;;2.35;1.50;;;22.70;40.70;;;;;;4994871;28;20034;-41
2022/04/23 02:10:31;;;;;;;2.78;1.65;;;22.70;40.70;;;;;;4998371;28;20444;-41
2022/04/23 02:12:57;;;;;;;2.40;1.45;;;22.70;40.70;;;;;;4998919;28;20034;-42
2022/04/23 02:15:23;;;;;;;2.95;1.70;;;22.70;40.70;;;;;;4981372;28;20026;-41
2022/04/23 02:17:50;;;;;;;2.63;1.52;;;22.60;40.60;;;;;;4999068;28;20032;-42
2022/04/23 02:20:17;;;;;;;2.25;1.42;;;22.60;40.60;;;;;;4980247;28;20026;-41
2022/04/23 02:22:44;;;;;;;2.80;1.60;;;22.70;40.70;;;;;;4998383;28;20509;-42
2022/04/23 02:25:11;;;;;;;2.78;1.80;;;22.60;40.70;;;;;;4998967;28;20030;-41
2022/04/23 02:27:44;;;;;;;2.40;1.38;;;22.60;40.60;;;;;;4998882;28;20047;-41
2022/04/23 02:30:15;;;;;;;2.78;1.70;;;22.60;40.60;;;;;;4998731;28;20088;-42
2022/04/23 02:32:41;;;;;;;3.08;1.95;;;22.60;40.60;;;;;;4998554;28;20113;-41
2022/04/23 02:35:08;;;;;;;3.70;2.30;;;22.60;40.60;;;;;;4998912;28;20109;-41
2022/04/23 02:37:34;;;;;;;2.60;1.50;;;22.60;40.60;;;;;;4998072;28;20044;-41
2022/04/23 02:40:05;;;;;;;3.05;1.85;;;22.60;40.60;;;;;;4998169;28;20107;-42
2022/04/23 02:42:30;;;;;;;2.80;1.67;;;22.60;40.60;;;;;;4998339;28;20733;-42
2022/04/23 02:45:01;;;;;;;2.97;1.77;;;22.60;40.60;;;;;;4998481;28;20022;-42
2022/04/23 02:47:28;;;;;;;2.92;1.90;;;22.60;40.60;;;;;;4998594;28;20371;-41
2022/04/23 02:49:54;;;;;;;2.75;1.73;;;22.60;40.60;;;;;;4998217;28;20033;-41
2022/04/23 02:52:20;;;;;;;2.90;1.88;;;22.60;40.60;;;;;;4997956;28;20052;-42
2022/04/23 02:54:46;;;;;;;3.03;1.88;;;22.60;40.60;;;;;;4997677;28;20117;-42
2022/04/23 02:57:12;;;;;;;3.17;1.90;;;22.60;40.60;;;;;;4998203;28;20436;-41
2022/04/23 02:59:39;;;;;;;3.10;1.95;;;22.60;40.60;;;;;;4997325;28;20116;-41
2022/04/23 03:02:05;;;;;;;3.00;1.88;;;22.60;40.60;;;;;;4998377;28;20030;-42
2022/04/23 03:04:32;;;;;;;3.55;1.92;;;22.60;40.60;;;;;;4998238;28;20037;-41
2022/04/23 03:06:57;;;;;;;3.03;1.98;;;22.60;40.60;;;;;;4997436;28;20025;-41
2022/04/23 03:09:23;;;;;;;3.10;1.90;;;22.60;40.50;;;;;;4991699;28;20445;-41
2022/04/23 03:11:49;;;;;;;3.28;2.00;;;22.60;40.60;;;;;;4997419;28;20033;-41
2022/04/23 03:14:15;;;;;;;3.70;2.38;;;22.60;40.60;;;;;;4997924;28;20097;-41
2022/04/23 03:16:41;;;;;;;3.30;2.05;;;22.60;40.60;;;;;;4997565;28;20040;-41
2022/04/23 03:19:07;;;;;;;2.58;1.40;;;22.60;40.60;;;;;;4998166;28;20022;-41
2022/04/23 03:21:33;;;;;;;3.08;1.90;;;22.60;40.60;;;;;;4997557;28;20398;-41
2022/04/23 03:23:58;;;;;;;3.45;2.08;;;22.60;40.60;;;;;;4998108;28;20049;-41
2022/04/23 03:26:24;;;;;;;3.25;2.10;;;22.60;40.50;;;;;;4998117;28;20018;-41
2022/04/23 03:28:50;;;;;;;2.80;1.83;;;22.60;40.60;;;;;;4997582;28;20213;-41
2022/04/23 03:31:16;;;;;;;3.53;2.15;;;22.60;40.60;;;;;;4996972;28;20057;-41
2022/04/23 03:33:42;;;;;;;3.75;2.13;;;22.50;40.60;;;;;;5001068;28;20618;-41
2022/04/23 03:36:08;;;;;;;3.40;2.10;;;22.50;40.50;;;;;;5002348;28;20022;-41
2022/04/23 03:38:33;;;;;;;2.90;1.83;;;22.60;40.50;;;;;;5001511;28;20153;-41
2022/04/23 03:40:59;;;;;;;3.15;2.03;;;22.60;40.50;;;;;;5000359;28;20113;-41
2022/04/23 03:43:25;;;;;;;3.10;2.03;;;22.50;40.60;;;;;;5001232;28;20022;-41
2022/04/23 03:45:52;;;;;;;3.35;2.20;;;22.60;40.50;;;;;;5002035;28;20466;-42
2022/04/23 03:48:18;;;;;;;3.88;2.30;;;22.50;40.60;;;;;;5002144;28;20022;-42
2022/04/23 03:50:43;;;;;;;3.25;2.17;;;22.50;40.50;;;;;;5001108;28;20056;-41
2022/04/23 03:53:09;;;;;;;3.47;2.10;;;22.50;40.50;;;;;;5001770;28;20386;-42
2022/04/23 03:55:35;;;;;;;4.28;1.98;;;22.50;40.50;;;;;;5000996;28;20127;-41
2022/04/23 03:58:01;;;;;;;3.35;2.15;;;22.50;40.50;;;;;;5001005;28;20621;-41
2022/04/23 04:00:28;;;;;;;3.50;2.25;;;22.50;40.50;;;;;;5001386;28;20511;-41
2022/04/23 04:02:55;;;;;;;3.40;2.22;;;22.50;40.50;;;;;;5001321;28;20033;-41
2022/04/23 04:05:22;;;;;;;3.33;2.03;;;22.50;40.50;;;;;;5000708;28;20076;-42
2022/04/23 04:07:48;;;;;;;3.10;2.00;;;22.50;40.40;;;;;;5000921;28;20025;-41
2022/04/23 04:10:18;;;;;;;3.58;2.38;;;22.50;40.50;;;;;;4996509;28;20137;-41
2022/04/23 04:12:44;;;;;;;3.53;2.33;;;22.50;40.50;;;;;;5000052;28;20800;-41
2022/04/23 04:15:12;;;;;;;3.83;2.30;;;22.50;40.50;;;;;;5001326;28;20030;-41
2022/04/23 04:17:38;;;;;;;3.33;2.15;;;22.50;40.50;;;;;;5001466;28;20022;-42
2022/04/23 04:20:08;;;;;;;3.40;2.30;;;22.50;40.50;;;;;;5000858;28;20038;-41
2022/04/23 04:22:35;;;;;;;3.53;2.50;;;22.50;40.60;;;;;;5001365;28;20029;-42
2022/04/23 04:25:04;;;;;;;3.75;2.35;;;22.50;40.50;;;;;;5000696;28;20026;-42
2022/04/23 04:27:30;;;;;;;3.50;2.33;;;22.50;40.50;;;;;;5000809;28;20034;-41
2022/04/23 04:29:56;;;;;;;3.40;2.00;;;22.50;40.50;;;;;;5001012;28;20096;-42
2022/04/23 04:32:22;;;;;;;3.38;2.17;;;22.50;40.50;;;;;;5000680;28;20062;-41
2022/04/23 04:34:47;;;;;;;3.05;2.10;;;22.50;40.50;;;;;;5000319;28;20030;-41
2022/04/23 04:37:13;;;;;;;3.85;2.42;;;22.50;40.40;;;;;;5000657;28;20033;-42
2022/04/23 04:39:42;;;;;;;3.70;2.30;;;22.50;40.40;;;;;;5000344;28;20040;-41
2022/04/23 04:42:09;;;;;;;3.45;2.22;;;22.40;40.40;;;;;;5000156;28;20030;-41
2022/04/23 04:44:35;;;;;;;3.60;2.35;;;22.40;40.30;;;;;;5000404;28;20061;-41
2022/04/23 04:47:01;;;;;;;3.50;2.35;;;22.40;40.30;;;;;;4999938;28;20034;-42
2022/04/23 04:49:27;;;;;;;3.60;2.33;;;22.40;40.30;;;;;;5000519;28;20127;-41
2022/04/23 04:51:53;;;;;;;3.55;2.22;;;22.40;40.30;;;;;;5000294;28;20058;-41
2022/04/23 04:54:21;;;;;;;3.40;2.10;;;22.50;40.40;;;;;;5000089;28;20168;-41
2022/04/23 04:56:48;;;;;;;3.25;2.20;;;22.40;40.40;;;;;;5000749;28;20698;-42
2022/04/23 04:59:14;;;;;;;3.45;2.17;;;22.40;40.40;;;;;;5000298;28;20034;-42
2022/04/23 05:01:40;;;;;;;4.28;2.70;;;22.40;40.40;;;;;;5000449;28;20022;-41
2022/04/23 05:04:05;;;;;;;3.50;2.25;;;22.40;40.40;;;;;;5000073;28;20441;-41
2022/04/23 05:06:31;;;;;;;3.78;2.65;;;22.40;40.40;;;;;;5000175;28;20073;-41
2022/04/23 05:08:57;;;;;;;3.40;2.15;;;22.40;40.30;;;;;;4998634;28;20584;-42
2022/04/23 05:11:24;;;;;;;3.35;2.22;;;22.40;40.40;;;;;;4998830;28;20501;-41
2022/04/23 05:13:50;;;;;;;3.80;2.30;;;22.40;40.40;;;;;;4999324;28;20136;-41
2022/04/23 05:16:16;;;;;;;3.45;2.22;;;22.40;40.50;;;;;;4982349;28;20065;-42
2022/04/23 05:18:42;;;;;;;3.53;2.40;;;22.40;40.40;;;;;;4999390;28;20088;-42
2022/04/23 05:21:08;;;;;;;3.80;2.33;;;22.40;40.40;;;;;;4981735;28;20018;-42
2022/04/23 05:23:34;;;;;;;3.45;2.30;;;22.40;40.50;;;;;;4998988;28;20022;-42
2022/04/23 05:26:00;;;;;;;3.83;2.67;;;22.40;40.70;;;;;;4997782;28;20037;-41
2022/04/23 05:28:26;;;;;;;5.60;3.08;;;22.50;40.90;;;;;;4999481;28;20084;-42
2022/04/23 05:30:51;;;;;;;3.97;2.60;;;22.50;41.20;;;;;;4998247;28;20049;-42
2022/04/23 05:33:17;;;;;;;4.50;3.03;;;22.60;41.40;;;;;;4991972;28;20102;-41
2022/04/23 05:35:43;;;;;;;4.78;2.97;;;22.60;41.60;;;;;;4998955;28;20025;-42
2022/04/23 05:38:09;;;;;;;4.43;3.05;;;22.60;41.70;;;;;;4998960;28;20026;-42
2022/04/23 05:40:34;;;;;;;5.13;2.70;;;22.60;41.80;;;;;;4999290;28;20034;-42
2022/04/23 05:43:00;;;;;;;4.72;2.80;;;22.60;41.80;;;;;;4999038;28;20037;-42
2022/04/23 05:45:27;;;;;;;4.20;2.72;;;22.70;41.80;;;;;;4981706;28;20636;-42
2022/04/23 05:47:53;;;;;;;5.20;2.50;;;22.70;41.80;;;;;;4999304;28;20080;-42
2022/04/23 05:50:20;;;;;;;4.00;2.45;;;22.70;41.70;;;;;;4998463;28;20033;-42
2022/04/23 05:52:46;;;;;;;3.85;2.40;;;22.70;41.70;;;;;;4998562;28;20618;-42
2022/04/23 05:55:12;;;;;;;4.32;2.55;;;22.80;41.60;;;;;;4998031;28;20030;-41
2022/04/23 05:57:38;;;;;;;5.03;2.92;;;22.80;41.50;;;;;;4999045;28;20026;-42
2022/04/23 06:00:09;;;;;;;4.25;2.47;;;22.90;41.50;;;;;;4998876;28;20034;-42
2022/04/23 06:02:35;;;;;;;4.28;2.92;;;23.00;41.40;;;;;;4998827;28;20461;-42
2022/04/23 06:05:01;;;;;;;4.60;2.83;;;23.00;41.20;;;;;;4992516;28;20742;-42
2022/04/23 06:07:27;;;;;;;4.00;2.40;;;23.00;41.10;;;;;;4993097;28;20113;-42
2022/04/23 06:09:53;;;;;;;4.55;2.95;;;23.10;41.10;;;;;;4996945;28;20378;-42
2022/04/23 06:12:19;;;;;;;5.28;2.55;;;23.10;40.90;;;;;;4998637;28;20127;-42
2022/04/23 06:14:44;;;;;;;4.75;2.30;;;23.20;40.80;;;;;;4997549;28;20034;-42
2022/04/23 06:17:12;;;;;;;4.60;2.75;;;23.20;40.70;;;;;;4998973;28;20030;-42
2022/04/23 06:19:42;;;;;;;4.35;2.60;;;23.20;40.60;;;;;;4998704;28;20034;-42
2022/04/23 06:22:09;;;;;;;4.22;2.70;;;23.30;40.60;;;;;;4998319;28;20076;-42
2022/04/23 06:24:35;;;;;;;3.83;2.53;;;23.30;40.50;;;;;;4998156;28;20022;-42
2022/04/23 06:27:01;;;;;;;4.82;2.72;;;23.40;40.40;;;;;;4998691;28;20108;-42
2022/04/23 06:29:27;;;;;;;3.70;2.00;;;23.40;40.40;;;;;;4998386;28;20375;-41
2022/04/23 06:31:53;;;;;;;3.75;2.45;;;23.40;40.30;;;;;;4998332;28;20060;-42
2022/04/23 06:34:20;;;;;;;3.85;2.45;;;23.50;40.30;;;;;;4998403;28;20537;-42
2022/04/23 06:36:46;;;;;;;3.70;2.38;;;23.50;40.10;;;;;;4998544;28;20120;-43
2022/04/23 06:39:11;;;;;;;3.60;2.60;;;23.50;40.10;;;;;;4998485;28;20038;-42
2022/04/23 06:41:37;;;;;;;3.78;2.30;;;23.60;40.00;;;;;;4998065;28;20037;-42
2022/04/23 06:44:03;;;;;;;4.68;2.40;;;23.60;39.90;;;;;;4998671;28;20100;-42
2022/04/23 06:46:29;;;;;;;4.28;2.42;;;23.70;39.90;;;;;;4989802;28;20021;-42
2022/04/23 06:48:54;;;;;;;3.83;2.28;;;23.60;39.80;;;;;;4997376;28;20025;-42
2022/04/23 06:51:20;;;;;;;4.57;2.58;;;23.70;39.90;;;;;;4997306;28;20034;-42
2022/04/23 06:53:46;;;;;;;4.30;2.47;;;23.70;39.90;;;;;;4998477;28;20045;-41
2022/04/23 06:56:11;;;;;;;4.32;2.67;;;23.70;39.80;;;;;;4997258;28;20447;-41
2022/04/23 06:58:37;;;;;;;5.75;2.58;;;23.70;39.80;;;;;;4998316;28;20036;-41
2022/04/23 07:01:06;;;;;;;4.82;2.67;;;23.70;39.80;;;;;;4997337;28;20065;-42
2022/04/23 07:03:32;;;;;;;4.50;2.55;;;23.70;39.80;;;;;;4997888;28;20018;-42
2022/04/23 07:05:57;;;;;;;4.80;2.88;;;23.70;39.70;;;;;;4980111;28;20083;-42
2022/04/23 07:08:23;;;;;;;5.53;2.67;;;23.70;39.70;;;;;;4997676;28;20113;-42
2022/04/23 07:10:49;;;;;;;5.63;3.30;;;23.70;39.70;;;;;;4996289;28;20026;-43
2022/04/23 07:13:15;;;;;;;3.95;2.60;;;23.70;39.70;;;;;;4997473;28;20026;-42
2022/04/23 07:15:41;;;;;;;4.28;2.63;;;23.70;39.60;;;;;;4997211;28;20032;-42
2022/04/23 07:18:08;;;;;;;4.40;2.60;;;23.70;39.60;;;;;;4995461;28;20026;-42
2022/04/23 07:20:35;;;;;;;4.97;2.70;;;23.70;39.60;;;;;;4996204;28;20061;-42
2022/04/23 07:25:45;;;;;;;4.45;2.85;;;23.70;39.60;;;;;;4997970;28;20068;-42
2022/04/23 07:28:11;;;;;;;4.30;2.60;;;23.70;39.60;;;;;;4997619;28;20334;-42
2022/04/23 07:30:37;;;;;;;4.30;2.83;;;23.70;39.60;;;;;;4997251;28;20038;-42
2022/04/23 07:33:04;;;;;;;5.38;3.10;;;23.70;39.60;;;;;;4997370;28;20038;-42
2022/04/23 07:38:17;;;;;;;3.90;2.40;;;23.70;39.60;;;;;;4997735;28;20480;-42
2022/04/23 07:40:47;;;;;;;5.05;3.08;;;23.70;39.60;;;;;;4996394;28;20065;-42
2022/04/23 07:43:14;;;;;;;4.93;2.95;;;23.70;39.60;;;;;;4997488;28;20018;-40
2022/04/23 07:45:42;;;;;;;4.80;2.72;;;23.70;39.60;;;;;;4997753;28;20449;-42
2022/04/23 07:48:10;;;;;;;4.78;2.90;;;23.70;39.60;;;;;;4997648;28;20026;-42
2022/04/23 07:50:37;;;;;;;4.65;2.88;;;23.70;39.60;;;;;;4997094;28;20030;-42
2022/04/23 07:53:03;;;;;;;4.72;2.95;;;23.70;39.60;;;;;;4997481;28;20026;-42
2022/04/23 07:55:33;;;;;;;5.13;2.42;;;23.70;39.60;;;;;;4996769;28;20033;-42
2022/04/23 07:57:59;;;;;;;4.97;3.00;;;23.70;39.60;;;;;;4989338;28;20454;-42
2022/04/23 08:00:29;;;;;;;4.68;3.08;;;23.60;39.50;;;;;;4996312;28;20092;-42
2022/04/23 08:02:55;;;;;;;5.05;2.78;;;23.60;39.50;;;;;;4996932;28;20034;-42
2022/04/23 08:05:21;;;;;;;4.20;2.72;;;23.70;39.60;;;;;;4997554;28;20026;-42
2022/04/23 08:07:47;;;;;;;5.13;3.28;;;23.60;39.50;;;;;;4980106;28;20049;-41
2022/04/23 08:10:13;;;;;;;4.80;2.58;;;23.70;39.60;;;;;;4996929;28;20037;-42
2022/04/23 08:12:39;;;;;;;4.85;3.15;;;23.60;39.60;;;;;;4986932;28;20497;-41
2022/04/23 08:15:06;;;;;;;5.00;2.95;;;23.70;39.60;;;;;;4964760;28;20042;-42
2022/04/23 08:17:32;;;;;;;4.55;2.67;;;23.70;39.60;;;;;;4997130;28;20058;-42
2022/04/23 08:19:58;;;;;;;4.93;2.80;;;23.70;39.60;;;;;;4999634;28;20346;-42
2022/04/23 08:22:24;;;;;;;6.05;3.40;;;23.70;39.60;;;;;;5000402;28;20430;-42
2022/04/23 08:24:49;;;;;;;4.13;2.47;;;23.70;39.60;;;;;;4999589;28;20096;-42
2022/04/23 08:27:15;;;;;;;4.20;2.55;;;23.70;39.60;;;;;;4971059;28;20041;-42
2022/04/23 08:32:25;;;;;;;4.03;2.13;;;23.70;39.50;;;;;;5000663;28;20108;-42
2022/04/23 08:34:51;;;;;;;4.53;2.85;;;23.70;39.50;;;;;;4982676;28;20033;-42
2022/04/23 08:37:17;;;;;;;4.50;2.75;;;23.70;39.40;;;;;;5000379;28;20022;-42
2022/04/23 08:39:43;;;;;;;4.45;2.53;;;23.80;39.40;;;;;;4981898;28;20013;-42
2022/04/23 08:42:09;;;;;;;4.30;2.80;;;23.70;39.40;;;;;;4999730;28;20080;-43
2022/04/23 08:44:38;;;;;;;4.72;3.00;;;23.80;39.40;;;;;;4999767;28;20029;-42
2022/04/23 08:47:04;;;;;;;4.68;2.83;;;23.70;39.30;;;;;;4999935;28;20426;-41
2022/04/23 08:49:32;;;;;;;4.18;2.88;;;23.70;39.30;;;;;;4999879;28;20026;-42
2022/04/23 08:52:21;;;;;;;4.80;2.22;;;23.70;39.30;;;;;;4999642;28;20022;-41
2022/04/23 08:54:47;;;;;;;4.05;2.60;;;23.80;39.30;;;;;;4981598;28;20034;-42
2022/04/23 08:57:13;;;;;;;4.70;2.90;;;23.70;39.20;;;;;;4999975;28;20026;-42
2022/04/23 08:59:41;;;;;;;4.28;2.40;;;23.80;39.30;;;;;;4999994;28;20582;-42
2022/04/23 09:02:13;;;;;;;4.72;3.20;;;23.70;39.20;;;;;;5000033;28;20193;-42
2022/04/23 09:04:42;;;;;;;4.38;2.63;;;23.70;39.30;;;;;;4999527;28;20445;-42
2022/04/23 09:07:21;;;;;;;4.28;2.90;;;23.70;39.30;;;;;;5000314;28;20033;-42
2022/04/23 09:09:51;;;;;;;4.25;2.75;;;23.70;39.30;;;;;;4998607;28;20087;-42
2022/04/23 09:12:18;;;;;;;5.20;3.10;;;23.70;39.30;;;;;;4997893;28;20139;-41
2022/04/23 09:14:48;;;;;;;5.15;2.97;;;23.70;39.30;;;;;;4987565;28;20048;-42
2022/04/23 09:25:46;;;;;;;4.38;2.83;;;23.70;39.20;;;;;;4998242;28;20520;-42
2022/04/23 09:28:15;;;;;;;4.88;3.15;;;23.70;39.20;;;;;;4998591;28;20427;-42
2022/04/23 09:30:41;;;;;;;4.53;2.88;;;23.70;39.90;;;;;;4998539;28;20025;-42
2022/04/23 09:33:06;;;;;;;4.50;3.13;;;23.70;39.20;;;;;;4999571;28;20036;-42
2022/04/23 09:35:32;;;;;;;5.32;3.38;;;23.70;39.20;;;;;;4998935;28;20421;-42
2022/04/23 09:38:15;;;;;;;3.78;2.58;;;23.70;39.20;;;;;;4999453;28;20026;-42
2022/04/23 09:40:41;;;;;;;3.97;2.60;;;23.70;39.20;;;;;;4998692;28;20045;-42
2022/04/23 09:43:09;;;;;;;4.97;3.17;;;23.70;39.20;;;;;;4999298;28;20391;-42
2022/04/23 09:45:41;;;;;;;4.45;2.88;;;23.70;39.20;;;;;;4999282;28;20127;-42
2022/04/23 09:48:15;;;;;;;5.85;3.13;;;23.70;39.20;;;;;;4999058;28;20141;-42
2022/04/23 09:50:44;;;;;;;4.65;3.20;;;23.60;39.20;;;;;;4998234;28;20065;-41
2022/04/23 09:53:15;;;;;;;4.32;2.85;;;23.70;39.20;;;;;;4981443;28;20056;-41
2022/04/23 09:55:41;;;;;;;4.68;3.30;;;23.60;39.20;;;;;;4964937;28;20069;-42
2022/04/23 09:58:09;;;;;;;4.22;2.88;;;23.60;39.20;;;;;;4965377;28;20022;-42
2022/04/23 10:00:37;;;;;;;4.63;3.30;;;23.60;39.10;;;;;;4981001;28;20040;-42
2022/04/23 10:03:06;;;;;;;4.97;3.50;;;23.60;39.10;;;;;;4998878;28;20703;-41
2022/04/23 10:05:40;;;;;;;4.75;3.20;;;23.60;39.10;;;;;;4999191;28;20038;-41
2022/04/23 10:08:12;;;;;;;4.75;3.05;;;23.60;39.10;;;;;;4999320;28;20022;-42
2022/04/23 10:10:55;;;;;;;4.72;3.28;;;23.60;39.20;;;;;;4998558;28;20688;-42
2022/04/23 10:13:23;;;;;;;4.47;2.97;;;23.60;39.20;;;;;;4993137;28;20030;-42
2022/04/23 10:15:52;;;;;;;4.68;3.30;;;23.60;39.10;;;;;;4998747;28;20100;-42
2022/04/23 10:18:18;;;;;;;4.90;3.13;;;23.60;39.10;;;;;;4998338;28;20545;-42
2022/04/23 10:20:54;;;;;;;4.75;3.20;;;23.60;39.10;;;;;;4998041;28;20049;-41
2022/04/23 10:23:46;;;;;;;4.40;2.90;;;23.60;39.20;;;;;;4998118;28;20267;-41
2022/04/23 10:26:45;;;;;;;4.18;3.00;;;23.60;39.20;;;;;;4997666;28;20062;-42
2022/04/23 10:29:16;;;;;;;4.72;3.35;;;23.60;39.20;;;;;;4998860;28;20611;-42
2022/04/23 10:31:43;;;;;;;5.32;3.90;;;23.50;39.20;;;;;;4998060;28;20108;-42
2022/04/23 10:34:30;;;;;;;4.72;3.42;;;23.50;39.20;;;;;;4998082;28;20498;-42
2022/04/23 10:37:19;;;;;;;4.55;3.03;;;23.60;39.20;;;;;;4998209;28;20383;-41
2022/04/23 10:40:05;;;;;;;4.35;2.83;;;23.50;39.20;;;;;;4997183;28;20030;-42
2022/04/23 10:42:32;;;;;;;4.22;3.25;;;23.50;39.30;;;;;;4984666;28;20104;-42
2022/04/23 10:45:06;;;;;;;7.45;3.92;;;23.50;39.60;;;;;;4998246;28;20036;-42
2022/04/23 10:47:36;;;;;;;5.10;3.75;;;23.50;39.70;;;;;;4980419;28;20690;-42
2022/04/23 10:50:25;;;;;;;6.65;3.45;;;23.50;39.90;;;;;;4997397;28;20030;-42
2022/04/23 10:52:54;;;;;;;5.15;3.58;;;23.50;40.00;;;;;;4997463;28;20026;-42
2022/04/23 10:55:21;;;;;;;4.82;3.55;;;23.50;40.20;;;;;;4989607;28;20209;-42
2022/04/23 10:57:50;;;;;;;5.35;3.83;;;23.50;40.20;;;;;;4996864;28;20030;-42
2022/04/23 11:00:18;;;;;;;4.85;3.80;;;23.50;40.30;;;;;;4997838;28;20057;-42
2022/04/23 11:03:06;;;;;;;5.68;3.85;;;23.50;40.20;;;;;;4997798;28;20161;-42
2022/04/23 11:13:58;;;;;;;5.25;3.50;;;23.60;39.70;;;;;;4996453;28;20349;-42
2022/04/23 11:16:26;;;;;;;4.78;3.70;;;23.60;39.70;;;;;;4994451;28;20037;-42
2022/04/23 11:18:53;;;;;;;4.75;3.20;;;23.60;39.60;;;;;;4997314;28;20033;-42
2022/04/23 11:21:24;;;;;;;5.00;3.85;;;23.60;39.50;;;;;;4997897;28;20414;-42
2022/04/23 11:23:51;;;;;;;5.45;3.60;;;23.60;39.50;;;;;;4997931;28;20044;-42
2022/04/23 11:26:18;;;;;;;5.47;3.95;;;23.70;39.60;;;;;;4997857;28;20188;-42
2022/04/23 11:28:46;;;;;;;5.70;3.85;;;23.70;39.60;;;;;;4997984;28;20029;-42
2022/04/23 11:31:16;;;;;;;3.88;3.28;;;23.70;39.40;;;;;;4997704;28;20022;-42
2022/04/23 11:33:59;;;;;;;4.88;3.92;;;23.70;39.40;;;;;;4996639;28;20180;-42
2022/04/23 11:36:45;;;;;;;5.47;3.83;;;23.70;39.50;;;;;;4987790;28;20105;-42
2022/04/23 11:39:13;;;;;;;4.57;3.15;;;23.70;39.60;;;;;;4976483;28;20037;-42
2022/04/23 11:41:39;;;;;;;4.72;3.38;;;23.70;39.60;;;;;;4996186;28;20084;-42
2022/04/23 11:44:15;;;;;;;4.45;3.30;;;23.70;39.60;;;;;;4993959;28;20026;-42
2022/04/23 11:46:43;;;;;;;5.05;3.55;;;23.70;39.60;;;;;;4990775;28;20026;-42
2022/04/23 11:49:09;;;;;;;4.20;3.15;;;23.70;39.60;;;;;;4974008;28;20070;-42
2022/04/23 11:51:34;;;;;;;5.70;3.47;;;23.80;40.20;;;;;;4993985;28;20563;-42
2022/04/23 11:54:00;;;;;;;4.80;3.33;;;23.80;39.80;;;;;;4997764;28;20084;-42
2022/04/23 11:56:33;;;;;;;5.75;4.28;;;23.80;39.80;;;;;;5000660;28;20761;-42
2022/04/23 11:59:03;;;;;;;6.15;4.45;;;23.80;40.70;;;;;;5001007;28;20146;-42
2022/04/23 12:01:29;;;;;;;5.28;3.90;;;23.90;40.70;;;;;;5000449;28;20026;-42
2022/04/23 12:03:56;;;;;;;4.53;3.70;;;23.90;40.40;;;;;;5000942;28;20030;-42
2022/04/23 12:06:23;;;;;;;6.45;4.22;;;23.90;40.20;;;;;;4999719;28;20058;-42
2022/04/23 12:08:50;;;;;;;4.38;3.00;;;23.90;40.10;;;;;;5000179;28;20021;-42
2022/04/23 12:11:23;;;;;;;4.85;3.45;;;23.90;40.00;;;;;;4999856;28;20030;-42
2022/04/23 12:13:50;;;;;;;5.70;3.83;;;23.90;39.90;;;;;;5000689;28;20064;-42
2022/04/23 12:16:41;;;;;;;4.53;3.35;;;23.90;39.80;;;;;;4979438;28;20107;-42
2022/04/23 12:19:13;;;;;;;4.78;3.90;;;23.90;39.80;;;;;;5000454;28;20109;-42
2022/04/23 12:21:55;;;;;;;4.45;3.35;;;23.90;39.80;;;;;;5000245;28;20029;-41
2022/04/23 12:24:34;;;;;;;4.22;3.20;;;24.00;39.60;;;;;;4993589;28;20025;-42
2022/04/23 12:27:04;;;;;;;5.20;3.65;;;23.90;39.60;;;;;;5000224;28;20105;-42
2022/04/23 12:40:45;;;;;;;5.03;3.80;;;23.90;39.40;;;;;;5000007;28;20026;-42
2022/04/23 12:43:24;;;;;;;5.80;3.83;;;23.90;39.30;;;;;;4999906;28;20022;-43
2022/04/23 12:45:51;;;;;;;5.40;3.97;;;23.90;39.40;;;;;;5000156;28;20038;-42
2022/04/23 12:48:17;;;;;;;4.57;3.45;;;23.90;39.30;;;;;;5000157;28;20026;-41
2022/04/23 12:50:44;;;;;;;4.68;3.50;;;23.90;39.40;;;;;;4982625;28;20694;-42
2022/04/23 12:53:11;;;;;;;4.93;3.63;;;23.80;39.30;;;;;;4998560;28;20099;-42
2022/04/23 12:55:37;;;;;;;5.53;3.72;;;23.80;39.40;;;;;;4998498;28;20064;-42
2022/04/23 12:58:03;;;;;;;5.18;3.47;;;23.80;39.40;;;;;;4999000;28;20034;-43
2022/04/23 13:00:31;;;;;;;5.07;3.65;;;23.80;39.50;;;;;;4998665;28;20366;-41
2022/04/23 13:03:00;;;;;;;4.70;3.42;;;23.80;39.40;;;;;;4998613;28;20097;-42
2022/04/23 13:05:27;;;;;;;4.93;3.72;;;23.80;39.50;;;;;;4999062;28;20054;-42
2022/04/23 13:10:38;;;;;;;4.82;3.55;;;23.80;39.40;;;;;;4999648;28;20251;-42
2022/04/23 13:13:07;;;;;;;4.55;3.45;;;23.80;39.30;;;;;;5000024;28;20063;-42
2022/04/23 13:15:35;;;;;;;5.70;3.50;;;23.80;39.40;;;;;;4997738;28;20788;-42
2022/04/23 13:18:02;;;;;;;5.40;3.50;;;23.80;39.30;;;;;;4982978;28;20038;-42
2022/04/23 13:20:28;;;;;;;4.80;3.33;;;23.80;39.20;;;;;;4979749;28;20660;-42
2022/04/23 13:22:55;;;;;;;4.80;3.42;;;23.80;39.20;;;;;;4987567;28;20037;-42
2022/04/23 13:25:21;;;;;;;5.88;3.28;;;23.80;39.20;;;;;;4992150;28;20561;-42
2022/04/23 13:27:46;;;;;;;6.43;4.28;;;23.70;39.30;;;;;;4994798;28;20025;-42
2022/04/23 13:30:14;;;;;;;6.13;4.15;;;23.80;39.60;;;;;;4995945;28;20040;-41